Time;durP1;ratioP1;P1;durP2;ratioP2;P2;SDS_P1;SDS_P2;PMS_P1;PMS_P2;Temp;Humidity;BMP_temperature;BMP_pressure;BME280_temperature;BME280_humidity;BME280_pressure;Samples;Min_cycle;Max_cycle;Signal;HPM_P1;HPM_P2
2023/09/27 00:02:23;;;;;;;13.25;8.93;;;409.80;2355.20;;;;;;5072100;28;20040;-58
2023/09/27 00:04:48;;;;;;;12.18;8.85;;;409.80;2355.20;;;;;;5071567;28;20055;-58
2023/09/27 00:07:15;;;;;;;11.82;8.55;;;409.90;2355.20;;;;;;5072482;28;20074;-56
2023/09/27 00:09:41;;;;;;;20.23;8.82;;;409.80;2355.20;;;;;;5071414;28;20092;-58
2023/09/27 00:12:07;;;;;;;22.85;9.55;;;409.90;2355.20;;;;;;5083528;28;20031;-58
2023/09/27 00:14:32;;;;;;;15.50;9.48;;;409.90;2355.20;;;;;;5067404;28;20495;-60
2023/09/27 00:16:58;;;;;;;15.82;7.85;;;409.80;2355.20;;;;;;5066547;28;20077;-57
2023/09/27 00:19:25;;;;;;;14.82;7.93;;;409.80;2355.20;;;;;;5070859;28;20045;-58
2023/09/27 00:21:51;;;;;;;16.05;8.90;;;409.80;2355.20;;;;;;5073076;28;20538;-58
2023/09/27 00:24:17;;;;;;;15.20;9.07;;;409.80;2355.20;;;;;;5073165;28;20032;-58
2023/09/27 00:26:43;;;;;;;16.58;9.68;;;409.80;2355.20;;;;;;5074971;28;20020;-58
2023/09/27 00:29:08;;;;;;;15.35;8.93;;;409.70;2355.20;;;;;;5073498;28;20471;-59
2023/09/27 00:31:34;;;;;;;14.68;8.93;;;409.60;2355.20;;;;;;5074170;28;20028;-57
2023/09/27 00:34:00;;;;;;;13.95;8.48;;;384.90;2329.60;;;;;;5073579;28;20031;-58
2023/09/27 00:36:25;;;;;;;16.10;9.40;;;384.80;2329.60;;;;;;5075862;28;20027;-58
2023/09/27 00:38:51;;;;;;;11.95;9.00;;;384.70;2329.60;;;;;;5078190;28;20112;-58
2023/09/27 00:41:17;;;;;;;16.38;9.23;;;384.70;2329.60;;;;;;5083807;28;20090;-57
2023/09/27 00:43:42;;;;;;;15.98;10.35;;;384.60;2329.60;;;;;;5083305;28;20043;-57
2023/09/27 00:46:10;;;;;;;12.90;9.13;;;384.70;2329.60;;;;;;5078026;28;20032;-58
2023/09/27 00:48:37;;;;;;;15.57;8.70;;;384.70;2329.60;;;;;;5084064;28;20036;-57
2023/09/27 00:51:04;;;;;;;16.10;9.55;;;384.70;2329.60;;;;;;5081278;28;20078;-59
2023/09/27 00:53:33;;;;;;;11.13;8.45;;;384.80;2329.60;;;;;;5081599;28;20026;-58
2023/09/27 00:55:59;;;;;;;14.20;9.70;;;384.90;2329.60;;;;;;5083251;28;20024;-58
2023/09/27 00:58:25;;;;;;;14.50;8.68;;;384.90;2329.60;;;;;;5081785;28;20013;-58
2023/09/27 01:00:52;;;;;;;9.95;8.32;;;384.90;2329.60;;;;;;5083644;28;20044;-58
2023/09/27 01:03:18;;;;;;;13.85;9.52;;;409.60;2355.20;;;;;;5079756;28;20024;-58
2023/09/27 01:05:47;;;;;;;19.40;9.60;;;409.60;2355.20;;;;;;5073952;28;20032;-58
2023/09/27 01:08:13;;;;;;;14.48;9.10;;;409.60;2355.20;;;;;;5070189;28;20052;-58
2023/09/27 01:10:39;;;;;;;16.35;9.40;;;409.60;2355.20;;;;;;5071537;28;20052;-58
2023/09/27 01:13:04;;;;;;;14.23;9.25;;;409.60;2355.20;;;;;;5070831;28;20051;-58
2023/09/27 01:15:33;;;;;;;12.75;8.68;;;409.60;2355.20;;;;;;5070236;28;20039;-58
2023/09/27 01:18:01;;;;;;;15.73;9.07;;;409.60;2355.20;;;;;;5071429;28;20079;-57
2023/09/27 01:20:28;;;;;;;20.00;9.63;;;409.60;2355.20;;;;;;5070451;28;20036;-58
2023/09/27 01:22:58;;;;;;;15.27;9.98;;;409.60;2355.20;;;;;;5070224;28;20025;-58
2023/09/27 01:25:33;;;;;;;12.48;8.52;;;384.70;2329.60;;;;;;5070739;28;20025;-58
2023/09/27 01:28:09;;;;;;;15.00;8.85;;;384.90;2329.60;;;;;;5083299;28;20478;-57
2023/09/27 01:30:36;;;;;;;13.50;9.60;;;384.70;2329.60;;;;;;5069810;28;20035;-58
2023/09/27 01:33:11;;;;;;;13.95;9.13;;;384.70;2329.60;;;;;;5081391;28;20119;-58
2023/09/27 01:35:39;;;;;;;15.38;9.02;;;384.70;2329.60;;;;;;5087617;28;20075;-59
2023/09/27 01:38:06;;;;;;;17.13;9.20;;;384.70;2329.60;;;;;;5085909;28;20017;-58
2023/09/27 01:40:34;;;;;;;13.13;9.13;;;384.50;2329.60;;;;;;5088139;28;20036;-58
2023/09/27 01:43:02;;;;;;;12.18;8.65;;;384.60;2329.60;;;;;;5086350;28;20012;-58
2023/09/27 01:45:29;;;;;;;14.43;9.65;;;384.60;2329.60;;;;;;5077176;28;20028;-58
2023/09/27 01:47:55;;;;;;;12.90;9.68;;;384.50;2329.60;;;;;;5089287;28;20028;-58
2023/09/27 01:50:24;;;;;;;13.23;8.98;;;384.50;2329.60;;;;;;5089692;28;20028;-58
2023/09/27 01:52:50;;;;;;;11.70;9.02;;;384.50;2329.60;;;;;;5087300;28;20031;-57
2023/09/27 01:55:16;;;;;;;15.40;9.48;;;384.40;2329.60;;;;;;5067291;28;20479;-59
2023/09/27 01:57:45;;;;;;;13.30;9.23;;;384.40;2329.60;;;;;;5089398;28;20032;-58
2023/09/27 02:00:14;;;;;;;18.10;11.38;;;384.30;2329.60;;;;;;5089487;28;20044;-57
2023/09/27 02:02:56;;;;;;;11.23;8.68;;;384.30;2329.60;;;;;;5089538;28;20012;-58
2023/09/27 02:05:22;;;;;;;16.67;9.43;;;384.20;2329.60;;;;;;5089316;28;20081;-58
2023/09/27 02:07:48;;;;;;;14.00;9.88;;;384.20;2329.60;;;;;;5089697;28;20020;-57
2023/09/27 02:10:14;;;;;;;12.48;9.35;;;384.10;2329.60;;;;;;5089348;28;20020;-58
2023/09/27 02:12:40;;;;;;;13.52;10.27;;;384.10;2329.60;;;;;;5088989;28;20081;-57
2023/09/27 02:15:08;;;;;;;15.18;11.20;;;384.10;2329.60;;;;;;5088970;28;20496;-58
2023/09/27 02:17:38;;;;;;;17.77;10.73;;;384.00;2329.60;;;;;;5062648;28;20019;-58
2023/09/27 02:20:10;;;;;;;19.92;10.05;;;384.00;2329.60;;;;;;5088648;28;20132;-57
2023/09/27 02:22:40;;;;;;;16.90;9.85;;;384.00;2329.60;;;;;;5089304;28;20458;-57
2023/09/27 02:25:11;;;;;;;14.95;9.93;;;384.00;2329.60;;;;;;5088567;28;20035;-58
2023/09/27 02:27:38;;;;;;;14.73;10.07;;;384.00;2329.60;;;;;;5070552;28;20017;-58
2023/09/27 02:30:07;;;;;;;19.65;11.98;;;359.30;2329.60;;;;;;5068402;28;20039;-58
2023/09/27 02:32:34;;;;;;;13.15;9.77;;;359.20;2329.60;;;;;;5088608;28;20040;-58
2023/09/27 02:35:00;;;;;;;19.13;10.30;;;359.20;2329.60;;;;;;5089101;28;20039;-58
2023/09/27 02:37:26;;;;;;;20.92;9.65;;;359.20;2329.60;;;;;;5089036;28;20024;-58
2023/09/27 02:39:51;;;;;;;17.30;9.60;;;359.20;2329.60;;;;;;5088141;28;20050;-59
2023/09/27 02:42:17;;;;;;;15.52;10.82;;;359.20;2329.60;;;;;;5089225;28;20448;-58
2023/09/27 02:44:43;;;;;;;18.40;9.60;;;359.30;2329.60;;;;;;5088536;28;20030;-58
2023/09/27 02:47:09;;;;;;;12.27;9.40;;;359.30;2329.60;;;;;;5078287;28;20485;-57
2023/09/27 02:49:35;;;;;;;17.10;11.23;;;359.30;2329.60;;;;;;5085426;28;20107;-58
2023/09/27 02:52:01;;;;;;;16.60;9.95;;;359.30;2329.60;;;;;;5089324;28;20411;-58
2023/09/27 02:54:27;;;;;;;15.57;10.27;;;384.00;2329.60;;;;;;5087995;28;20137;-57
2023/09/27 02:56:53;;;;;;;12.35;9.50;;;359.30;2329.60;;;;;;5088326;28;20055;-58
2023/09/27 02:59:19;;;;;;;13.73;8.85;;;359.30;2329.60;;;;;;5083902;28;20176;-57
2023/09/27 03:01:45;;;;;;;16.98;11.32;;;359.30;2329.60;;;;;;5068020;28;20033;-58
2023/09/27 03:04:11;;;;;;;20.60;11.68;;;359.20;2329.60;;;;;;5084194;28;20462;-58
2023/09/27 03:06:41;;;;;;;14.43;10.52;;;359.20;2329.60;;;;;;5089198;28;20024;-58
2023/09/27 03:09:11;;;;;;;18.73;10.02;;;359.10;2329.60;;;;;;5088656;28;20023;-57
2023/09/27 03:11:39;;;;;;;16.67;10.32;;;359.00;2329.60;;;;;;5088811;28;20028;-57
2023/09/27 03:14:04;;;;;;;14.95;9.50;;;359.00;2329.60;;;;;;5087695;28;20028;-58
2023/09/27 03:16:30;;;;;;;16.92;11.10;;;359.00;2329.60;;;;;;5088775;28;20488;-58
2023/09/27 03:18:58;;;;;;;15.50;10.35;;;359.00;2329.60;;;;;;5087982;28;20059;-59
2023/09/27 03:21:26;;;;;;;16.13;9.65;;;359.00;2329.60;;;;;;5088150;28;20036;-58
2023/09/27 03:23:55;;;;;;;17.52;10.30;;;359.00;2329.60;;;;;;5088092;28;20432;-58
2023/09/27 03:26:25;;;;;;;13.63;10.45;;;358.90;2329.60;;;;;;5088738;28;20028;-57
2023/09/27 03:28:51;;;;;;;14.57;11.15;;;358.90;2329.60;;;;;;5088331;28;20032;-59
2023/09/27 03:31:17;;;;;;;20.30;14.20;;;358.90;2329.60;;;;;;5086653;28;20380;-59
2023/09/27 03:33:43;;;;;;;18.83;14.02;;;358.80;2329.60;;;;;;5088021;28;20373;-58
2023/09/27 03:36:09;;;;;;;19.27;11.73;;;358.80;2329.60;;;;;;5088531;28;20114;-58
2023/09/27 03:38:36;;;;;;;16.25;11.50;;;358.90;2329.60;;;;;;5067934;28;20103;-58
2023/09/27 03:41:07;;;;;;;14.02;10.18;;;358.90;2329.60;;;;;;5074428;28;20044;-58
2023/09/27 03:43:33;;;;;;;22.20;10.95;;;359.00;2329.60;;;;;;5088026;28;20020;-59
2023/09/27 03:46:03;;;;;;;23.20;10.80;;;359.00;2329.60;;;;;;5087252;28;20028;-59
2023/09/27 03:48:29;;;;;;;17.15;11.50;;;358.90;2329.60;;;;;;5088444;28;20032;-58
2023/09/27 03:50:56;;;;;;;18.02;12.27;;;358.90;2329.60;;;;;;5088191;28;20024;-58
2023/09/27 03:53:22;;;;;;;19.85;12.60;;;358.80;2329.60;;;;;;5088234;28;20435;-59
2023/09/27 03:55:48;;;;;;;16.83;10.88;;;358.80;2329.60;;;;;;5088104;28;20035;-57
2023/09/27 03:58:13;;;;;;;17.58;10.93;;;358.80;2329.60;;;;;;5085556;28;20028;-57
2023/09/27 04:00:39;;;;;;;14.07;10.50;;;358.80;2329.60;;;;;;5081418;28;20398;-59
2023/09/27 04:03:05;;;;;;;17.30;11.27;;;358.80;2329.60;;;;;;5087017;28;20377;-60
2023/09/27 04:05:30;;;;;;;27.33;10.63;;;358.90;2329.60;;;;;;5087763;28;20448;-57
2023/09/27 04:07:57;;;;;;;15.48;9.95;;;358.90;2329.60;;;;;;5089014;28;20017;-57
2023/09/27 04:10:24;;;;;;;18.88;11.40;;;359.00;2329.60;;;;;;5078328;28;20025;-57
2023/09/27 04:12:50;;;;;;;18.83;11.90;;;358.90;2329.60;;;;;;5082792;28;20030;-58
2023/09/27 04:15:17;;;;;;;18.95;10.60;;;358.80;2329.60;;;;;;5086829;28;20024;-58
2023/09/27 04:17:43;;;;;;;17.35;12.00;;;358.80;2329.60;;;;;;5090894;28;20028;-58
2023/09/27 04:20:18;;;;;;;13.27;10.55;;;358.80;2329.60;;;;;;5090679;28;20101;-57
2023/09/27 04:22:47;;;;;;;16.67;11.68;;;358.80;2329.60;;;;;;5087911;28;20032;-59
2023/09/27 04:25:13;;;;;;;16.88;10.95;;;358.80;2329.60;;;;;;5087029;28;20020;-56
2023/09/27 04:27:41;;;;;;;17.52;12.57;;;358.70;2329.60;;;;;;5089300;28;20032;-57
2023/09/27 04:30:11;;;;;;;17.05;11.45;;;358.70;2329.60;;;;;;5090917;28;20559;-58
2023/09/27 04:32:42;;;;;;;16.60;10.65;;;358.80;2329.60;;;;;;5091290;28;20028;-58
2023/09/27 04:35:08;;;;;;;16.00;10.80;;;358.80;2329.60;;;;;;5091047;28;20032;-58
2023/09/27 04:37:35;;;;;;;16.30;11.68;;;358.80;2329.60;;;;;;5090504;28;20021;-58
2023/09/27 04:40:04;;;;;;;14.40;9.88;;;358.80;2329.60;;;;;;5091665;28;20177;-58
2023/09/27 04:42:29;;;;;;;17.00;9.25;;;358.80;2329.60;;;;;;5073187;28;20029;-58
2023/09/27 04:44:55;;;;;;;21.95;11.82;;;358.90;2329.60;;;;;;5083188;28;20039;-58
2023/09/27 04:47:21;;;;;;;18.77;11.68;;;359.00;2329.60;;;;;;5090750;28;20020;-58
2023/09/27 04:49:47;;;;;;;18.52;10.13;;;359.00;2329.60;;;;;;5091031;28;20027;-58
2023/09/27 04:52:13;;;;;;;19.30;10.48;;;359.00;2329.60;;;;;;5090778;28;20572;-58
2023/09/27 04:54:39;;;;;;;19.38;11.35;;;359.10;2329.60;;;;;;5090941;28;20019;-58
2023/09/27 04:57:04;;;;;;;20.27;14.32;;;359.10;2329.60;;;;;;5091119;28;20101;-58
2023/09/27 04:59:31;;;;;;;18.75;13.07;;;358.80;2329.60;;;;;;5090673;28;20023;-58
2023/09/27 05:01:56;;;;;;;18.83;12.02;;;358.70;2329.60;;;;;;5090290;28;20389;-57
2023/09/27 05:04:22;;;;;;;21.02;12.50;;;358.60;2329.60;;;;;;5090564;28;20020;-58
2023/09/27 05:06:48;;;;;;;17.08;10.35;;;358.50;2329.60;;;;;;5090817;28;20378;-58
2023/09/27 05:09:14;;;;;;;13.88;10.27;;;358.70;2329.60;;;;;;5076863;28;20485;-57
2023/09/27 05:11:40;;;;;;;19.95;10.05;;;358.80;2329.60;;;;;;5090447;28;20055;-57
2023/09/27 05:14:06;;;;;;;18.48;10.35;;;359.00;2329.60;;;;;;5090062;28;20461;-60
2023/09/27 05:16:38;;;;;;;17.27;11.25;;;359.00;2329.60;;;;;;5090408;28;20162;-57
2023/09/27 05:19:03;;;;;;;14.68;10.57;;;359.00;2329.60;;;;;;5069941;28;20049;-58
2023/09/27 05:21:29;;;;;;;19.17;10.75;;;359.20;2329.60;;;;;;5071429;28;20048;-58
2023/09/27 05:23:55;;;;;;;21.25;11.18;;;359.10;2329.60;;;;;;5088685;28;20534;-58
2023/09/27 05:26:21;;;;;;;14.32;10.07;;;359.20;2329.60;;;;;;5089674;28;20028;-57
2023/09/27 05:28:47;;;;;;;16.63;10.00;;;359.30;2329.60;;;;;;5083717;28;20090;-58
2023/09/27 05:31:12;;;;;;;15.15;10.07;;;384.10;2329.60;;;;;;5075030;28;20086;-58
2023/09/27 05:33:38;;;;;;;18.13;10.25;;;384.20;2329.60;;;;;;5083923;28;20028;-59
2023/09/27 05:36:05;;;;;;;21.83;9.93;;;384.30;2329.60;;;;;;5090042;28;20032;-56
2023/09/27 05:38:31;;;;;;;19.05;9.63;;;384.30;2329.60;;;;;;5089592;28;20032;-57
2023/09/27 05:40:57;;;;;;;18.60;13.60;;;384.50;2329.60;;;;;;5089425;28;20050;-57
2023/09/27 05:43:22;;;;;;;15.80;10.18;;;384.40;2329.60;;;;;;5089243;28;20107;-57
2023/09/27 05:45:48;;;;;;;14.70;10.07;;;384.50;2329.60;;;;;;5089817;28;20066;-57
2023/09/27 05:48:14;;;;;;;11.43;9.85;;;384.60;2329.60;;;;;;5088687;28;20032;-58
2023/09/27 05:50:44;;;;;;;13.63;11.35;;;384.70;2329.60;;;;;;5090071;28;20055;-57
2023/09/27 05:53:11;;;;;;;15.85;12.02;;;384.60;2329.60;;;;;;5089934;28;20077;-57
2023/09/27 05:55:37;;;;;;;15.02;11.52;;;384.70;2329.60;;;;;;5089991;28;20055;-59
2023/09/27 05:58:03;;;;;;;21.52;12.07;;;409.90;2355.20;;;;;;5080123;28;20048;-58
2023/09/27 06:00:37;;;;;;;17.77;11.25;;;436.00;2355.20;;;;;;5070494;28;20043;-58
2023/09/27 06:03:04;;;;;;;18.85;10.13;;;486.70;2380.80;;;;;;5068552;28;20311;-58
2023/09/27 06:05:30;;;;;;;17.35;10.63;;;512.90;2380.80;;;;;;5069939;28;20079;-58
2023/09/27 06:07:55;;;;;;;12.27;8.70;;;563.60;2432.00;;;;;;5069046;28;20060;-57
2023/09/27 06:10:22;;;;;;;14.40;9.85;;;589.10;2432.00;;;;;;5074652;28;20024;-57
2023/09/27 06:12:48;;;;;;;14.20;9.23;;;589.30;2432.00;;;;;;5076073;28;20112;-59
2023/09/27 06:15:14;;;;;;;13.68;9.50;;;589.20;2432.00;;;;;;5069289;28;20135;-58
2023/09/27 06:17:42;;;;;;;19.35;10.45;;;589.50;2406.40;;;;;;5073858;28;20028;-58
2023/09/27 06:20:11;;;;;;;13.15;10.73;;;589.00;2432.00;;;;;;5089425;28;20052;-58
2023/09/27 06:22:39;;;;;;;18.08;9.63;;;589.70;2380.80;;;;;;5083567;28;20077;-59
2023/09/27 06:25:05;;;;;;;12.45;9.60;;;640.40;2227.20;;;;;;5081481;28;20024;-60
2023/09/27 06:27:31;;;;;;;12.93;10.27;;;640.70;2176.00;;;;;;5073535;28;20028;-57
2023/09/27 06:29:57;;;;;;;14.70;10.88;;;665.70;2176.00;;;;;;5069290;28;20710;-57
2023/09/27 06:32:23;;;;;;;18.80;11.60;;;666.20;2099.20;;;;;;5069004;28;20492;-59
2023/09/27 06:34:49;;;;;;;19.38;12.55;;;691.20;2048.00;;;;;;5062968;28;20112;-59
2023/09/27 06:37:14;;;;;;;15.52;11.63;;;692.10;1971.20;;;;;;5064402;28;20382;-58
2023/09/27 06:39:41;;;;;;;19.50;12.10;;;691.60;1996.80;;;;;;5069017;28;20017;-58
2023/09/27 06:42:07;;;;;;;13.63;10.50;;;691.90;1945.60;;;;;;5068616;28;20044;-59
2023/09/27 06:44:34;;;;;;;15.85;12.10;;;716.80;1971.20;;;;;;5068939;28;20064;-59
2023/09/27 06:46:59;;;;;;;13.43;10.65;;;691.90;1945.60;;;;;;5088170;28;20036;-59
2023/09/27 06:49:25;;;;;;;18.20;11.35;;;717.40;1920.00;;;;;;5088677;28;20081;-59
2023/09/27 06:51:51;;;;;;;13.63;10.90;;;743.10;1868.80;;;;;;5089169;28;20085;-59
2023/09/27 06:54:17;;;;;;;18.83;11.18;;;742.80;1868.80;;;;;;5089563;28;20024;-59
2023/09/27 06:56:42;;;;;;;11.05;9.60;;;742.40;1868.80;;;;;;5089168;28;20107;-59
2023/09/27 06:59:08;;;;;;;16.45;10.90;;;768.00;1792.00;;;;;;5086933;28;20025;-59
2023/09/27 07:01:34;;;;;;;13.52;11.32;;;768.90;1740.80;;;;;;5084075;28;20465;-60
2023/09/27 07:04:03;;;;;;;18.27;11.13;;;794.30;1689.60;;;;;;5088777;28;20099;-59
2023/09/27 07:06:29;;;;;;;17.77;10.98;;;820.00;1638.40;;;;;;5072668;28;20120;-58
2023/09/27 07:08:57;;;;;;;12.40;10.77;;;819.50;1664.00;;;;;;5084037;28;20107;-60
2023/09/27 07:11:24;;;;;;;15.60;10.25;;;819.80;1638.40;;;;;;5087092;28;20040;-58
2023/09/27 07:13:50;;;;;;;15.55;10.48;;;819.80;1612.80;;;;;;5088001;28;20058;-59
2023/09/27 07:16:27;;;;;;;14.10;10.98;;;819.40;1638.40;;;;;;5061351;28;20116;-59
2023/09/27 07:18:53;;;;;;;17.45;10.70;;;819.80;1612.80;;;;;;5088058;28;20060;-60
2023/09/27 07:21:20;;;;;;;13.73;11.38;;;820.10;1612.80;;;;;;5083833;28;20371;-59
2023/09/27 07:23:47;;;;;;;16.55;10.38;;;870.50;1561.60;;;;;;5083403;28;20355;-58
2023/09/27 07:26:13;;;;;;;13.00;10.63;;;870.50;1510.40;;;;;;5064890;28;20057;-59
2023/09/27 07:28:39;;;;;;;11.95;10.13;;;871.10;1484.80;;;;;;5068742;28;20029;-60
2023/09/27 07:31:06;;;;;;;15.45;11.07;;;896.50;1433.60;;;;;;5077399;28;20055;-58
2023/09/27 07:33:31;;;;;;;18.80;10.45;;;871.10;1433.60;;;;;;5073101;28;20020;-58
2023/09/27 07:35:58;;;;;;;16.92;10.90;;;896.40;1408.00;;;;;;5089112;28;20039;-59
2023/09/27 07:38:25;;;;;;;14.80;11.77;;;896.40;1433.60;;;;;;5069959;28;20056;-59
2023/09/27 07:40:51;;;;;;;17.00;10.88;;;871.10;1433.60;;;;;;5076312;28;20047;-59
2023/09/27 07:43:18;;;;;;;14.82;10.80;;;871.20;1433.60;;;;;;5083685;28;20020;-58
2023/09/27 07:45:46;;;;;;;16.67;12.30;;;871.30;1459.20;;;;;;5059347;28;20029;-59
2023/09/27 07:48:12;;;;;;;12.57;10.43;;;870.90;1459.20;;;;;;5072032;28;20417;-60
2023/09/27 07:50:39;;;;;;;14.88;11.20;;;871.10;1459.20;;;;;;5072770;28;20028;-59
2023/09/27 07:53:08;;;;;;;15.05;11.05;;;871.10;1459.20;;;;;;5076325;28;20395;-59
2023/09/27 07:55:50;;;;;;;12.65;11.25;;;871.30;1433.60;;;;;;5080628;28;20438;-60
2023/09/27 07:58:16;;;;;;;15.02;11.43;;;871.10;1433.60;;;;;;5092578;28;20020;-59
2023/09/27 08:00:43;;;;;;;16.52;10.65;;;870.70;1459.20;;;;;;5083549;28;20085;-60
2023/09/27 08:03:10;;;;;;;15.50;11.68;;;871.10;1408.00;;;;;;5078422;28;20032;-59
2023/09/27 08:05:42;;;;;;;13.05;11.00;;;871.20;1408.00;;;;;;5080350;28;20029;-59
2023/09/27 08:08:12;;;;;;;24.08;11.98;;;870.60;1433.60;;;;;;5088894;28;20027;-60
2023/09/27 08:10:45;;;;;;;12.93;11.60;;;845.40;1484.80;;;;;;5074764;28;20033;-59
2023/09/27 08:13:12;;;;;;;20.27;11.55;;;870.90;1459.20;;;;;;5081860;28;20060;-59
2023/09/27 08:15:39;;;;;;;16.60;11.57;;;871.10;1433.60;;;;;;5072091;28;20059;-58
2023/09/27 08:18:05;;;;;;;17.00;10.32;;;871.20;1408.00;;;;;;5076912;28;20024;-61
2023/09/27 08:20:31;;;;;;;14.65;10.68;;;870.60;1433.60;;;;;;5091824;28;20050;-61
2023/09/27 08:22:57;;;;;;;11.93;10.43;;;845.50;1433.60;;;;;;5091635;28;20024;-61
2023/09/27 08:25:22;;;;;;;15.20;9.98;;;870.50;1433.60;;;;;;5089620;28;20088;-60
2023/09/27 08:27:50;;;;;;;15.85;11.00;;;870.80;1433.60;;;;;;5075040;28;20029;-59
2023/09/27 08:30:16;;;;;;;18.38;10.57;;;870.70;1433.60;;;;;;5070609;28;20481;-59
2023/09/27 08:32:42;;;;;;;14.13;10.45;;;870.50;1408.00;;;;;;5073054;28;20033;-58
2023/09/27 08:35:09;;;;;;;15.00;10.90;;;870.90;1382.40;;;;;;5074923;28;20078;-60
2023/09/27 08:37:35;;;;;;;24.55;11.75;;;870.50;1433.60;;;;;;5067528;28;20059;-61
2023/09/27 08:40:01;;;;;;;18.77;10.68;;;845.60;1433.60;;;;;;5069611;28;20075;-60
2023/09/27 08:42:28;;;;;;;18.83;11.52;;;845.30;1459.20;;;;;;5085579;28;20027;-61
2023/09/27 08:44:55;;;;;;;17.38;10.32;;;845.20;1459.20;;;;;;5079067;28;20622;-61
2023/09/27 08:47:22;;;;;;;25.30;10.88;;;870.40;1433.60;;;;;;5078856;28;20466;-60
2023/09/27 08:49:49;;;;;;;20.08;10.73;;;845.60;1459.20;;;;;;5076775;28;20470;-57
2023/09/27 08:52:16;;;;;;;20.73;10.48;;;819.20;1510.40;;;;;;5070535;28;20028;-58
2023/09/27 08:54:43;;;;;;;18.45;9.07;;;794.00;1510.40;;;;;;5069649;28;20054;-58
2023/09/27 08:57:10;;;;;;;15.20;8.77;;;;;;;;;;5082716;28;20052;-58
2023/09/27 08:59:36;;;;;;;16.23;9.52;;;768.10;1510.40;;;;;;5074172;28;20035;-57
2023/09/27 09:02:05;;;;;;;12.57;7.65;;;742.60;1612.80;;;;;;5079519;28;20028;-59
2023/09/27 09:04:34;;;;;;;9.18;6.93;;;717.10;1612.80;;;;;;5069373;28;20048;-57
2023/09/27 09:07:02;;;;;;;19.15;7.30;;;691.80;1587.20;;;;;;5070803;28;20393;-57
2023/09/27 09:09:30;;;;;;;18.33;8.20;;;692.10;1587.20;;;;;;5054861;28;20017;-58
2023/09/27 09:11:59;;;;;;;13.18;7.40;;;691.90;1612.80;;;;;;5068621;28;20024;-58
2023/09/27 09:14:38;;;;;;;13.55;8.07;;;691.70;1638.40;;;;;;5069459;28;20107;-57
2023/09/27 09:17:07;;;;;;;12.65;7.47;;;691.40;1664.00;;;;;;5073619;28;20028;-58
2023/09/27 09:19:34;;;;;;;13.55;7.07;;;691.30;1664.00;;;;;;5069910;28;20048;-58
2023/09/27 09:22:08;;;;;;;8.68;6.63;;;691.40;1638.40;;;;;;5080890;28;20025;-59
2023/09/27 09:24:41;;;;;;;13.13;6.72;;;691.60;1638.40;;;;;;5081387;28;20028;-57
2023/09/27 09:27:16;;;;;;;15.77;7.95;;;691.90;1664.00;;;;;;5084049;28;20056;-59
2023/09/27 09:29:47;;;;;;;13.00;7.55;;;691.30;1664.00;;;;;;5079837;28;20060;-59
2023/09/27 09:32:15;;;;;;;11.23;6.53;;;691.30;1689.60;;;;;;5082385;28;20024;-59
2023/09/27 09:34:41;;;;;;;11.23;7.43;;;;;;;;;;5073585;28;20020;-58
2023/09/27 09:37:21;;;;;;;10.15;7.28;;;;;;;;;;5082256;28;20468;-59
2023/09/27 09:39:48;;;;;;;20.05;8.35;;;;;;;;;;5078852;28;20027;-58
2023/09/27 09:42:14;;;;;;;11.45;7.28;;;;;;;;;;5083751;28;20494;-58
2023/09/27 09:44:41;;;;;;;15.80;7.35;;;;;;;;;;5087482;28;20024;-59
2023/09/27 09:47:10;;;;;;;12.45;7.15;;;;;;;;;;5078494;28;20035;-59
2023/09/27 09:49:36;;;;;;;13.65;6.68;;;;;;;;;;5084544;28;20424;-58
2023/09/27 09:52:06;;;;;;;14.20;8.20;;;;;;;;;;5074048;28;20534;-57
2023/09/27 09:54:46;;;;;;;12.30;7.35;;;;;;;;;;5072932;28;20082;-58
2023/09/27 09:57:13;;;;;;;12.70;6.93;;;;;;;;;;5080212;28;20032;-59
2023/09/27 09:59:58;;;;;;;16.67;7.68;;;;;;;;;;5074200;28;20375;-56
2023/09/27 10:02:26;;;;;;;10.95;7.30;;;;;;;;;;5077236;28;20020;-57
2023/09/27 10:04:55;;;;;;;18.73;8.05;;;;;;;;;;5073086;28;20048;-57
2023/09/27 10:07:22;;;;;;;15.88;7.95;;;;;;;;;;5063807;28;20375;-56
2023/09/27 10:09:49;;;;;;;14.68;7.55;;;;;;;;;;5062885;28;20025;-56
2023/09/27 10:12:16;;;;;;;15.90;7.13;;;;;;;;;;5078367;28;20323;-57
2023/09/27 10:14:43;;;;;;;11.55;7.57;;;;;;;;;;5084165;28;20425;-57
2023/09/27 10:17:22;;;;;;;13.18;6.82;;;;;;;;;;5080713;28;20370;-57
2023/09/27 10:20:13;;;;;;;15.40;7.45;;;;;;;;;;5069382;28;20048;-58
2023/09/27 10:22:45;;;;;;;10.63;6.43;;;666.00;1766.40;;;;;;5070191;28;20120;-58
2023/09/27 10:25:34;;;;;;;10.73;6.35;;;665.90;1766.40;;;;;;5070283;28;20067;-57
2023/09/27 10:28:04;;;;;;;8.88;6.32;;;665.70;1766.40;;;;;;5070951;28;20107;-57
2023/09/27 10:30:45;;;;;;;15.48;7.90;;;665.70;1766.40;;;;;;5070259;28;20036;-57
2023/09/27 10:33:16;;;;;;;10.50;6.63;;;640.70;1740.80;;;;;;5070265;28;20038;-59
2023/09/27 10:36:03;;;;;;;13.27;7.22;;;640.30;1740.80;;;;;;5077503;28;20369;-57
2023/09/27 10:38:41;;;;;;;9.15;7.50;;;640.50;1766.40;;;;;;5069308;28;20377;-57
2023/09/27 10:41:07;;;;;;;11.52;7.57;;;640.90;1766.40;;;;;;5081780;28;20032;-59
2023/09/27 10:43:36;;;;;;;17.45;8.18;;;665.60;1792.00;;;;;;5069061;28;20024;-58
2023/09/27 10:46:04;;;;;;;10.80;6.13;;;640.60;1715.20;;;;;;5082756;28;20496;-58
2023/09/27 10:48:31;;;;;;;11.32;6.97;;;640.40;1740.80;;;;;;5081143;28;20052;-57
2023/09/27 10:50:57;;;;;;;16.10;6.68;;;640.70;1792.00;;;;;;5069297;28;20099;-57
2023/09/27 10:53:23;;;;;;;9.43;7.45;;;640.70;1740.80;;;;;;5068801;28;20028;-59
2023/09/27 10:55:49;;;;;;;12.60;7.22;;;640.60;1766.40;;;;;;5071143;28;20055;-58
2023/09/27 10:58:15;;;;;;;13.05;7.78;;;640.60;1792.00;;;;;;5081128;28;20017;-58
2023/09/27 11:00:57;;;;;;;19.27;7.65;;;640.60;1766.40;;;;;;5078248;28;20035;-58
2023/09/27 11:03:29;;;;;;;9.85;7.13;;;640.60;1766.40;;;;;;5068720;28;20211;-59
2023/09/27 11:06:15;;;;;;;13.93;7.03;;;640.60;1766.40;;;;;;5069191;28;20028;-57
2023/09/27 11:08:42;;;;;;;8.50;6.47;;;640.70;1792.00;;;;;;5056483;28;20025;-57
2023/09/27 11:11:09;;;;;;;15.18;6.90;;;640.90;1766.40;;;;;;5062238;28;20103;-58
2023/09/27 11:13:35;;;;;;;12.20;7.30;;;665.60;1792.00;;;;;;5085881;28;20032;-58
2023/09/27 11:16:27;;;;;;;12.48;7.15;;;640.90;1766.40;;;;;;5084937;28;20549;-57
2023/09/27 11:18:56;;;;;;;12.38;8.00;;;640.90;1766.40;;;;;;5083950;28;20051;-58
2023/09/27 11:21:28;;;;;;;10.75;7.35;;;640.90;1766.40;;;;;;5091003;28;20569;-57
2023/09/27 11:23:54;;;;;;;16.85;7.90;;;665.60;1817.60;;;;;;5088917;28;20020;-58
2023/09/27 11:26:21;;;;;;;10.57;7.18;;;640.90;1766.40;;;;;;5081185;28;20029;-57
2023/09/27 11:28:57;;;;;;;15.52;8.48;;;640.70;1792.00;;;;;;5091305;28;20016;-57
2023/09/27 11:31:27;;;;;;;14.50;7.80;;;665.60;1792.00;;;;;;5091951;28;20077;-59
2023/09/27 11:33:53;;;;;;;15.40;6.88;;;665.60;1792.00;;;;;;5088015;28;20116;-59
2023/09/27 11:36:18;;;;;;;13.02;7.25;;;665.60;1792.00;;;;;;5092822;28;20107;-56
2023/09/27 11:38:50;;;;;;;14.23;8.23;;;665.60;1792.00;;;;;;5072602;28;20027;-58
2023/09/27 11:41:18;;;;;;;11.93;7.50;;;640.90;1792.00;;;;;;5084460;28;20032;-58
2023/09/27 11:43:45;;;;;;;11.73;6.97;;;665.60;1817.60;;;;;;5091370;28;20474;-58
2023/09/27 11:46:11;;;;;;;15.45;7.95;;;665.80;1817.60;;;;;;5092703;28;20040;-56
2023/09/27 11:48:37;;;;;;;12.63;7.18;;;665.90;1792.00;;;;;;5091733;28;20020;-58
2023/09/27 11:51:02;;;;;;;10.27;6.63;;;665.90;1817.60;;;;;;5090174;28;20024;-56
2023/09/27 11:53:28;;;;;;;14.57;8.10;;;665.90;1792.00;;;;;;5071725;28;20021;-57
2023/09/27 11:55:59;;;;;;;8.88;7.35;;;665.90;1792.00;;;;;;5072966;28;20063;-57
2023/09/27 11:58:26;;;;;;;10.82;6.93;;;665.90;1740.80;;;;;;5083120;28;20028;-58
2023/09/27 12:00:52;;;;;;;13.05;7.28;;;665.80;1766.40;;;;;;5072078;28;20041;-58
2023/09/27 12:03:17;;;;;;;14.95;8.05;;;666.00;1792.00;;;;;;5071686;28;20028;-57
2023/09/27 12:05:44;;;;;;;9.30;6.60;;;666.20;1766.40;;;;;;5084934;28;20028;-58
2023/09/27 12:08:10;;;;;;;7.88;6.55;;;666.30;1715.20;;;;;;5065457;28;20079;-58
2023/09/27 12:10:35;;;;;;;9.63;7.15;;;666.20;1689.60;;;;;;5068479;28;20021;-58
2023/09/27 12:13:02;;;;;;;10.50;7.97;;;666.20;1689.60;;;;;;5082522;28;20119;-57
2023/09/27 12:15:28;;;;;;;15.93;7.05;;;666.30;1689.60;;;;;;5091428;28;20091;-57
2023/09/27 12:17:53;;;;;;;9.40;6.72;;;666.20;1689.60;;;;;;5091642;28;20114;-58